Bahla, Oman
Current Conditions -  °F | °C
As of 10:52 AM on Wednesday 26 Nov 2014 (Local Time) from EQMN Reporting Station
Clear Clear  
Wind Chill: 82°   Ceiling: Unl
Heat Index: 85°   Visibility: 6mi
Dew Point: 66°   Wind: 3mph
Humidity: 58%   Direction: 30°NNE
Pressure: 29.97"   Gusts: NA
Location:  22.97°N, 57.3°E
Report Text: EQMN 260652Z AUTO 03003KT 9000 SKC 28/19 Q1015
Loading
Personal Weather Stations






























Interactive Weather Map New forecast layout! Learn more

10-Day Weather Forecast

Advertisements
Track Severe Weather on mobile